Time;durP1;ratioP1;P1;durP2;ratioP2;P2;SDS_P1;SDS_P2;PMS_P1;PMS_P2;Temp;Humidity;BMP_temperature;BMP_pressure;BME280_temperature;BME280_humidity;BME280_pressure;Samples;Min_cycle;Max_cycle;Signal;HPM_P1;HPM_P2
2022/02/18 00:00:47;;;;;;;;;;;;;;;7.66;100.00;97751.19;5093830;28;19924;-78
2022/02/18 00:03:15;;;;;;;;;;;;;;;7.30;100.00;97750.47;5093983;28;20403;-77
2022/02/18 00:05:43;;;;;;;;;;;;;;;7.41;100.00;97742.66;5128282;27;19924;-79
2022/02/18 00:08:10;;;;;;;;;;;;;;;7.48;100.00;97739.72;5082721;28;19931;-78
2022/02/18 00:10:38;;;;;;;;;;;;;;;7.55;100.00;97738.75;5073243;28;19929;-78
2022/02/18 00:13:05;;;;;;;;;;;;;;;7.11;100.00;97734.66;5074498;28;20446;-79
2022/02/18 00:15:32;;;;;;;;;;;;;;;7.25;100.00;97726.00;5074402;28;19931;-78
2022/02/18 00:18:01;;;;;;;;;;;;;;;7.10;100.00;97706.09;5074512;28;19970;-78
2022/02/18 00:20:29;;;;;;;;;;;;;;;7.31;100.00;97699.25;5074447;28;20254;-78
2022/02/18 00:22:57;;;;;;;;;;;;;;;7.22;100.00;97682.41;5056377;28;19930;-79
2022/02/18 00:25:24;;;;;;;;;;;;;;;7.42;100.00;97669.22;5074468;28;20396;-79
2022/02/18 00:27:57;;;;;;;;;;;;;;;7.45;100.00;97659.22;5056734;28;19999;-78
2022/02/18 00:30:24;;;;;;;;;;;;;;;7.51;100.00;97655.47;5073046;28;20288;-78
2022/02/18 00:32:53;;;;;;;;;;;;;;;7.05;100.00;97645.53;5072283;28;19932;-79
2022/02/18 00:35:22;;;;;;;;;;;;;;;7.12;100.00;97633.44;5072907;28;19956;-78
2022/02/18 00:37:52;;;;;;;;;;;;;;;7.39;100.00;97629.16;5055300;28;19924;-78
2022/02/18 00:40:19;;;;;;;;;;;;;;;7.43;100.00;97617.97;5074333;28;19940;-77
2022/02/18 00:42:49;;;;;;;;;;;;;;;7.50;100.00;97612.22;5072744;28;19931;-80
2022/02/18 00:45:16;;;;;;;;;;;;;;;7.00;100.00;97593.28;5089598;28;19931;-76
2022/02/18 00:47:43;;;;;;;;;;;;;;;7.24;100.00;97593.84;5093192;28;20379;-76
2022/02/18 00:50:11;;;;;;;;;;;;;;;7.18;100.00;97579.72;5092929;28;19970;-75
2022/02/18 00:52:38;;;;;;;;;;;;;;;7.38;100.00;97557.38;5092971;28;19930;-75
2022/02/18 00:55:05;;;;;;;;;;;;;;;7.21;100.00;97566.94;5094210;28;19928;-75
2022/02/18 00:57:34;;;;;;;;;;;;;;;6.31;100.00;97562.47;5076388;28;19931;-76
2022/02/18 01:00:01;;;;;;;;;;;;;;;5.84;100.00;97542.50;5092753;28;19924;-75
2022/02/18 01:02:28;;;;;;;;;;;;;;;6.46;100.00;97558.94;5093995;28;19924;-75
2022/02/18 01:04:55;;;;;;;;;;;;;;;6.69;100.00;97527.47;5093876;28;19928;-75
2022/02/18 01:07:25;;;;;;;;;;;;;;;6.01;100.00;97510.06;5094038;28;20361;-75
2022/02/18 01:09:54;;;;;;;;;;;;;;;6.00;100.00;97514.06;5092535;28;19928;-76
2022/02/18 01:12:22;;;;;;;;;;;;;;;6.46;100.00;97502.66;5094007;28;19924;-75
2022/02/18 01:14:49;;;;;;;;;;;;;;;6.02;100.00;97500.53;5093692;28;19942;-75
2022/02/18 01:17:16;;;;;;;;;;;;;;;6.50;100.00;97497.78;5092779;28;19931;-75
2022/02/18 01:19:44;;;;;;;;;;;;;;;6.50;100.00;97486.69;5093801;28;20504;-75
2022/02/18 01:22:12;;;;;;;;;;;;;;;6.61;100.00;97476.13;5093831;28;19969;-76
2022/02/18 01:24:39;;;;;;;;;;;;;;;6.72;100.00;97468.31;5093841;28;19987;-76
2022/02/18 01:27:07;;;;;;;;;;;;;;;6.62;100.00;97444.41;5093787;28;19924;-76
2022/02/18 01:29:39;;;;;;;;;;;;;;;6.77;100.00;97429.69;5092636;28;20399;-76
2022/02/18 01:32:07;;;;;;;;;;;;;;;6.10;100.00;97419.53;5092588;28;19989;-76
2022/02/18 01:34:34;;;;;;;;;;;;;;;6.28;100.00;97414.34;5092365;28;19931;-75
2022/02/18 01:37:01;;;;;;;;;;;;;;;5.16;100.00;97405.84;5092477;28;19924;-75
2022/02/18 01:39:28;;;;;;;;;;;;;;;5.29;100.00;97393.66;5093729;28;19924;-75
2022/02/18 01:41:56;;;;;;;;;;;;;;;4.88;100.00;97371.22;5093361;28;19928;-75
2022/02/18 01:44:37;;;;;;;;;;;;;;;5.40;100.00;97366.53;5092274;28;19933;-75
2022/02/18 01:47:15;;;;;;;;;;;;;;;5.91;100.00;97359.41;5092427;28;20418;-75
2022/02/18 01:49:43;;;;;;;;;;;;;;;5.53;100.00;97342.47;5093514;28;19924;-75
2022/02/18 01:52:11;;;;;;;;;;;;;;;5.98;100.00;97322.41;5092194;28;20383;-75
2022/02/18 01:54:39;;;;;;;;;;;;;;;5.77;100.00;97315.38;5095782;28;19924;-75
2022/02/18 01:57:07;;;;;;;;;;;;;;;5.71;100.00;97291.41;5096061;28;19924;-75
2022/02/18 01:59:36;;;;;;;;;;;;;;;5.19;100.00;97291.47;5079724;28;20027;-75
2022/02/18 02:02:03;;;;;;;;;;;;;;;5.56;100.00;97258.50;5095930;28;20406;-75
2022/02/18 02:04:31;;;;;;;;;;;;;;;5.50;100.00;97248.38;5097151;28;20280;-75
2022/02/18 02:06:59;;;;;;;;;;;;;;;5.80;100.00;97247.25;5095933;28;20033;-75
2022/02/18 02:09:26;;;;;;;;;;;;;;;6.02;100.00;97212.22;5095990;28;19925;-75
2022/02/18 02:11:55;;;;;;;;;;;;;;;5.92;100.00;97218.84;5078479;28;19924;-75
2022/02/18 02:14:23;;;;;;;;;;;;;;;5.09;100.00;97201.13;5095853;28;19931;-75
2022/02/18 02:16:50;;;;;;;;;;;;;;;5.03;100.00;97164.88;5095713;28;19924;-75
2022/02/18 02:19:20;;;;;;;;;;;;;;;5.36;100.00;97163.66;5078763;28;20008;-75
2022/02/18 02:21:50;;;;;;;;;;;;;;;5.57;100.00;97143.72;5095709;28;19931;-75
2022/02/18 02:24:18;;;;;;;;;;;;;;;5.76;100.00;97142.03;5095644;28;19924;-75
2022/02/18 02:26:45;;;;;;;;;;;;;;;5.50;100.00;97113.44;5062003;28;19928;-75
2022/02/18 02:29:14;;;;;;;;;;;;;;;5.65;100.00;97113.81;5095603;28;19931;-75
2022/02/18 02:31:44;;;;;;;;;;;;;;;5.68;100.00;97090.03;5095455;28;19924;-76
2022/02/18 02:34:11;;;;;;;;;;;;;;;5.76;100.00;97094.13;5095382;28;19970;-75
2022/02/18 02:36:42;;;;;;;;;;;;;;;5.27;100.00;97097.03;5078681;28;20019;-75
2022/02/18 02:39:10;;;;;;;;;;;;;;;5.62;100.00;97077.91;5095509;28;20282;-75
2022/02/18 02:41:38;;;;;;;;;;;;;;;5.33;100.00;97067.59;5095188;28;19924;-75
2022/02/18 02:44:07;;;;;;;;;;;;;;;5.56;100.00;97047.19;5095369;28;20068;-75
2022/02/18 02:46:35;;;;;;;;;;;;;;;5.87;100.00;97036.44;5078155;28;19951;-75
2022/02/18 02:49:10;;;;;;;;;;;;;;;5.80;100.00;97017.22;5095294;28;20004;-76
2022/02/18 02:51:41;;;;;;;;;;;;;;;5.48;100.00;97005.06;5095198;28;19924;-75
2022/02/18 02:54:09;;;;;;;;;;;;;;;5.29;100.00;97000.47;5094881;28;19936;-75
2022/02/18 02:56:37;;;;;;;;;;;;;;;5.85;100.00;96991.75;5078280;28;19931;-75
2022/02/18 02:59:06;;;;;;;;;;;;;;;5.82;100.00;96962.16;5094999;28;19924;-76
2022/02/18 03:01:41;;;;;;;;;;;;;;;5.80;100.00;96981.22;5094881;28;19924;-76
2022/02/18 03:04:07;;;;;;;;;;;;;;;5.69;100.00;96955.81;5094552;28;20341;-76
2022/02/18 03:06:37;;;;;;;;;;;;;;;5.41;100.00;96951.88;5096065;28;19977;-75
2022/02/18 03:09:10;;;;;;;;;;;;;;;5.38;100.00;96942.47;5128641;27;19924;-75
2022/02/18 03:11:57;;;;;;;;;;;;;;;5.66;100.00;96907.63;5094582;28;20351;-75
2022/02/18 03:14:44;;;;;;;;;;;;;;;5.96;100.00;96900.75;5095304;28;19927;-75
2022/02/18 03:17:18;;;;;;;;;;;;;;;5.44;100.00;96854.84;5061166;28;19977;-76
2022/02/18 03:19:45;;;;;;;;;;;;;;;5.32;100.00;96836.25;5094618;28;19928;-76
2022/02/18 03:22:25;;;;;;;;;;;;;;;5.81;100.00;96842.22;5094582;28;20022;-76
2022/02/18 03:24:53;;;;;;;;;;;;;;;5.88;100.00;96835.72;5094391;28;19924;-76
2022/02/18 03:27:21;;;;;;;;;;;;;;;6.27;100.00;96824.09;5077929;28;20457;-76
2022/02/18 03:29:51;;;;;;;;;;;;;;;6.48;100.00;96807.44;5094332;28;19931;-76
2022/02/18 03:32:24;;;;;;;;;;;;;;;6.50;100.00;96801.44;5094384;28;19931;-76
2022/02/18 03:34:56;;;;;;;;;;;;;;;6.19;100.00;96779.19;5094333;28;19924;-76
2022/02/18 03:37:33;;;;;;;;;;;;;;;5.81;100.00;96769.38;5128211;27;20363;-76
2022/02/18 03:40:09;;;;;;;;;;;;;;;6.21;100.00;96770.41;5094263;28;19966;-76
2022/02/18 03:42:37;;;;;;;;;;;;;;;6.30;100.00;96756.63;5094185;28;19928;-76
2022/02/18 03:45:06;;;;;;;;;;;;;;;6.40;100.00;96755.47;5094014;28;20022;-76
2022/02/18 03:47:33;;;;;;;;;;;;;;;6.56;100.00;96730.28;5094011;28;19950;-76
2022/02/18 03:50:03;;;;;;;;;;;;;;;6.62;100.00;96729.25;5094175;28;19924;-76
2022/02/18 03:52:30;;;;;;;;;;;;;;;6.84;100.00;96723.69;5093857;28;19924;-76
2022/02/18 03:54:57;;;;;;;;;;;;;;;6.38;100.00;96696.88;5077062;28;19924;-76
2022/02/18 03:57:24;;;;;;;;;;;;;;;5.65;100.00;96694.75;5093804;28;20264;-76
2022/02/18 03:59:52;;;;;;;;;;;;;;;5.76;100.00;96687.59;5077096;28;19963;-76
2022/02/18 04:02:19;;;;;;;;;;;;;;;6.04;100.00;96678.34;5093526;28;19924;-76
2022/02/18 04:04:47;;;;;;;;;;;;;;;5.90;100.00;96678.06;5093237;28;19970;-76
2022/02/18 04:07:22;;;;;;;;;;;;;;;6.39;100.00;96663.16;5093353;28;19924;-76
2022/02/18 04:09:54;;;;;;;;;;;;;;;6.58;100.00;96647.41;5092890;28;19924;-76
2022/02/18 04:12:23;;;;;;;;;;;;;;;6.86;100.00;96637.97;5093218;28;20371;-76
2022/02/18 04:14:58;;;;;;;;;;;;;;;6.90;100.00;96633.06;5093366;28;19924;-76
2022/02/18 04:17:27;;;;;;;;;;;;;;;7.01;100.00;96622.31;5093180;28;19928;-75
2022/02/18 04:20:21;;;;;;;;;;;;;;;6.71;100.00;96617.56;5092364;28;20394;-76
2022/02/18 04:23:22;;;;;;;;;;;;;;;6.36;100.00;96593.97;5093368;28;19924;-76
2022/02/18 04:25:50;;;;;;;;;;;;;;;6.89;100.00;96573.97;5093400;28;19931;-76
2022/02/18 04:28:17;;;;;;;;;;;;;;;6.44;100.00;96550.84;5093310;28;20248;-76
2022/02/18 04:30:44;;;;;;;;;;;;;;;6.39;100.00;96518.19;5094336;28;19931;-76
2022/02/18 04:33:15;;;;;;;;;;;;;;;6.59;100.00;96502.69;5093529;28;19924;-76
2022/02/18 04:35:43;;;;;;;;;;;;;;;6.62;100.00;96489.91;5094319;28;20344;-76
2022/02/18 04:38:10;;;;;;;;;;;;;;;6.49;100.00;96467.06;5093239;28;19924;-76
2022/02/18 04:40:38;;;;;;;;;;;;;;;6.58;100.00;96467.84;5094413;28;19924;-75
2022/02/18 04:43:05;;;;;;;;;;;;;;;6.82;100.00;96448.63;5094126;28;20011;-76
2022/02/18 04:45:32;;;;;;;;;;;;;;;6.91;100.00;96440.28;5094305;28;19946;-76
2022/02/18 04:47:59;;;;;;;;;;;;;;;7.00;100.00;96410.53;5093084;28;19924;-76
2022/02/18 04:50:27;;;;;;;;;;;;;;;7.21;100.00;96386.59;5094016;28;19925;-76
2022/02/18 04:52:54;;;;;;;;;;;;;;;7.14;100.00;96381.38;5092956;28;19928;-76
2022/02/18 04:55:22;;;;;;;;;;;;;;;7.35;100.00;96369.31;5094176;28;19924;-76
2022/02/18 04:57:49;;;;;;;;;;;;;;;7.18;100.00;96359.78;5092832;28;20363;-76
2022/02/18 05:00:17;;;;;;;;;;;;;;;7.52;100.00;96358.63;5093019;28;19935;-76
2022/02/18 05:02:46;;;;;;;;;;;;;;;7.65;100.00;96359.94;5094124;28;20026;-76
2022/02/18 05:05:14;;;;;;;;;;;;;;;6.79;100.00;96333.00;5093940;28;20022;-76
2022/02/18 05:07:41;;;;;;;;;;;;;;;7.01;100.00;96306.59;5094074;28;20012;-76
2022/02/18 05:10:08;;;;;;;;;;;;;;;7.15;100.00;96288.50;5092618;28;19931;-76
2022/02/18 05:12:36;;;;;;;;;;;;;;;7.47;100.00;96281.47;5093980;28;19955;-76
2022/02/18 05:15:03;;;;;;;;;;;;;;;7.41;100.00;96295.22;5094025;28;20091;-76
2022/02/18 05:17:34;;;;;;;;;;;;;;;7.40;100.00;96282.59;5094068;28;19928;-76
2022/02/18 05:20:28;;;;;;;;;;;;;;;7.18;100.00;96260.59;5093419;28;19924;-76
2022/02/18 05:22:55;;;;;;;;;;;;;;;7.17;100.00;96236.06;5093984;28;19924;-76
2022/02/18 05:25:22;;;;;;;;;;;;;;;7.06;100.00;96213.59;5092718;28;19928;-76
2022/02/18 05:27:49;;;;;;;;;;;;;;;7.26;100.00;96209.03;5096508;28;19924;-76
2022/02/18 05:30:16;;;;;;;;;;;;;;;7.43;100.00;96220.53;5098167;28;19981;-76
2022/02/18 05:32:45;;;;;;;;;;;;;;;7.69;100.00;96223.63;5098082;28;20019;-76
2022/02/18 05:35:12;;;;;;;;;;;;;;;7.49;100.00;96224.22;5081184;28;19924;-76
2022/02/18 05:37:39;;;;;;;;;;;;;;;7.73;100.00;96240.88;5077810;28;20314;-76
2022/02/18 05:40:06;;;;;;;;;;;;;;;7.83;100.00;96212.56;5077606;28;19931;-76
2022/02/18 05:42:33;;;;;;;;;;;;;;;7.64;100.00;96163.13;5077740;28;19924;-76
2022/02/18 05:45:00;;;;;;;;;;;;;;;7.88;100.00;96175.78;5077733;28;19924;-76
2022/02/18 05:47:27;;;;;;;;;;;;;;;7.54;100.00;96154.13;5077607;28;19924;-76
2022/02/18 05:49:54;;;;;;;;;;;;;;;6.53;100.00;96146.69;5076033;28;19935;-76
2022/02/18 05:52:21;;;;;;;;;;;;;;;7.01;100.00;96144.84;5077714;28;19924;-76
2022/02/18 05:54:48;;;;;;;;;;;;;;;7.50;100.00;96109.06;5077249;28;19925;-76
2022/02/18 05:57:15;;;;;;;;;;;;;;;7.60;100.00;96085.53;5077436;28;19932;-76
2022/02/18 05:59:43;;;;;;;;;;;;;;;8.33;100.00;96092.00;5077264;28;19988;-76
2022/02/18 06:02:10;;;;;;;;;;;;;;;8.49;100.00;96083.19;5076024;28;20023;-76
2022/02/18 06:04:38;;;;;;;;;;;;;;;8.75;100.00;96088.91;5059258;28;20082;-76
2022/02/18 06:07:05;;;;;;;;;;;;;;;8.80;100.00;96074.28;5059580;28;20015;-76
2022/02/18 06:09:32;;;;;;;;;;;;;;;8.78;100.00;96051.75;5077172;28;19998;-76
2022/02/18 06:11:59;;;;;;;;;;;;;;;9.11;100.00;96044.66;5076964;28;19928;-76
2022/02/18 06:14:26;;;;;;;;;;;;;;;9.27;100.00;96037.00;5076929;28;19924;-75
2022/02/18 06:16:53;;;;;;;;;;;;;;;9.05;100.00;96013.19;5076276;28;19925;-76
2022/02/18 06:19:20;;;;;;;;;;;;;;;9.04;100.00;96033.91;5076750;28;19925;-75
2022/02/18 06:21:47;;;;;;;;;;;;;;;9.24;100.00;96002.50;5076762;28;19932;-75
2022/02/18 06:24:14;;;;;;;;;;;;;;;9.46;100.00;95996.44;5058875;28;19932;-75
2022/02/18 06:26:41;;;;;;;;;;;;;;;9.40;100.00;95982.47;5075043;28;19925;-75
2022/02/18 06:29:10;;;;;;;;;;;;;;;9.38;100.00;95959.88;5076705;28;19932;-76
2022/02/18 06:31:37;;;;;;;;;;;;;;;9.54;100.00;95948.19;5076389;28;19928;-75
2022/02/18 06:34:04;;;;;;;;;;;;;;;9.30;100.00;95978.28;5076658;28;19931;-75
2022/02/18 06:36:31;;;;;;;;;;;;;;;9.06;100.00;95945.09;5075190;28;19947;-76
2022/02/18 06:38:58;;;;;;;;;;;;;;;9.28;100.00;95935.47;5075682;28;20058;-75
2022/02/18 06:41:26;;;;;;;;;;;;;;;9.01;100.00;95951.34;5075263;28;20017;-76
2022/02/18 06:43:52;;;;;;;;;;;;;;;9.15;100.00;95936.59;5075113;28;20348;-75
2022/02/18 06:46:19;;;;;;;;;;;;;;;9.24;100.00;95934.91;5074992;28;20019;-75
2022/02/18 06:48:47;;;;;;;;;;;;;;;9.00;100.00;95933.13;5076253;28;19929;-76
2022/02/18 06:51:14;;;;;;;;;;;;;;;8.95;100.00;95922.66;5076218;28;19925;-75
2022/02/18 06:53:41;;;;;;;;;;;;;;;8.83;100.00;95912.63;5076189;28;19925;-75
2022/02/18 06:56:08;;;;;;;;;;;;;;;9.03;100.00;95911.88;5076009;28;19925;-76
2022/02/18 06:59:00;;;;;;;;;;;;;;;8.93;100.00;95897.34;5076039;28;20022;-75
2022/02/18 07:01:27;;;;;;;;;;;;;;;9.09;100.00;95885.63;5074542;28;19928;-75
2022/02/18 07:03:55;;;;;;;;;;;;;;;9.16;100.00;95890.75;5074764;28;20391;-76
2022/02/18 07:06:22;;;;;;;;;;;;;;;9.19;100.00;95906.50;5076024;28;20265;-75
2022/02/18 07:08:49;;;;;;;;;;;;;;;8.93;100.00;95905.69;5075468;28;20393;-76
2022/02/18 07:11:16;;;;;;;;;;;;;;;8.76;100.00;95915.84;5075598;28;20097;-76
2022/02/18 07:13:43;;;;;;;;;;;;;;;8.62;100.00;95916.66;5075983;28;19924;-75
2022/02/18 07:16:12;;;;;;;;;;;;;;;8.64;100.00;95916.97;5075438;28;19925;-75
2022/02/18 07:18:39;;;;;;;;;;;;;;;8.53;100.00;95910.47;5075633;28;20376;-75
2022/02/18 07:21:06;;;;;;;;;;;;;;;8.45;100.00;95887.84;5074333;28;20301;-76
2022/02/18 07:23:34;;;;;;;;;;;;;;;8.46;100.00;95894.97;5075439;28;19928;-75
2022/02/18 07:26:05;;;;;;;;;;;;;;;8.64;100.00;95936.44;5074440;28;20368;-76
2022/02/18 07:28:32;;;;;;;;;;;;;;;8.21;100.00;95950.44;5075388;28;19933;-75
2022/02/18 07:30:59;;;;;;;;;;;;;;;7.98;100.00;95932.59;5073355;28;20375;-75
2022/02/18 07:33:26;;;;;;;;;;;;;;;7.85;100.00;95923.81;5066628;28;20376;-75
2022/02/18 07:35:53;;;;;;;;;;;;;;;7.57;100.00;95903.13;5074966;28;19924;-75
2022/02/18 07:38:20;;;;;;;;;;;;;;;7.83;100.00;95895.72;5075244;28;19933;-75
2022/02/18 07:40:47;;;;;;;;;;;;;;;7.95;100.00;95888.34;5084390;28;19924;-75
2022/02/18 07:43:16;;;;;;;;;;;;;;;7.95;100.00;95889.09;5095521;28;19932;-75
2022/02/18 07:45:58;;;;;;;;;;;;;;;8.12;100.00;95869.91;5093537;28;20283;-75
2022/02/18 07:48:25;;;;;;;;;;;;;;;7.97;100.00;95855.25;5095238;28;19931;-75
2022/02/18 07:50:52;;;;;;;;;;;;;;;7.89;100.00;95854.88;5085356;28;19931;-75
2022/02/18 07:53:20;;;;;;;;;;;;;;;8.06;100.00;95857.91;5078766;28;20269;-75
2022/02/18 07:55:48;;;;;;;;;;;;;;;8.31;100.00;95840.63;5080966;28;19924;-75
2022/02/18 07:58:16;;;;;;;;;;;;;;;8.27;100.00;95837.28;5086810;28;20380;-75
2022/02/18 08:00:43;;;;;;;;;;;;;;;8.26;100.00;95842.06;5093186;28;19932;-75
2022/02/18 08:03:10;;;;;;;;;;;;;;;8.09;100.00;95834.75;5094992;28;20453;-75
2022/02/18 08:05:37;;;;;;;;;;;;;;;7.75;100.00;95838.25;5088757;28;19925;-75
2022/02/18 08:08:04;;;;;;;;;;;;;;;7.76;100.00;95840.56;5054519;28;19931;-75
2022/02/18 08:10:32;;;;;;;;;;;;;;;7.94;100.00;95823.66;5080521;28;19931;-75
2022/02/18 08:12:59;;;;;;;;;;;;;;;8.00;100.00;95838.38;5074495;28;20284;-75
2022/02/18 08:15:26;;;;;;;;;;;;;;;7.93;100.00;95821.34;5074315;28;19969;-75
2022/02/18 08:17:53;;;;;;;;;;;;;;;8.15;100.00;95819.66;5074297;28;19932;-75
2022/02/18 08:20:21;;;;;;;;;;;;;;;8.14;100.00;95804.22;5071233;28;19932;-75
2022/02/18 08:22:48;;;;;;;;;;;;;;;8.17;100.00;95808.81;5066304;28;19928;-75
2022/02/18 08:25:15;;;;;;;;;;;;;;;8.29;100.00;95795.84;5073070;28;20453;-75
2022/02/18 08:27:44;;;;;;;;;;;;;;;8.85;100.00;95798.81;5073308;28;19932;-75
2022/02/18 08:30:12;;;;;;;;;;;;;;;8.90;100.00;95786.97;5073883;28;20017;-75
2022/02/18 08:32:42;;;;;;;;;;;;;;;9.12;100.00;95778.81;5072737;28;19924;-74
2022/02/18 08:35:09;;;;;;;;;;;;;;;8.96;100.00;95773.88;5072353;28;20383;-74
2022/02/18 08:37:37;;;;;;;;;;;;;;;8.88;100.00;95772.75;5072892;28;19931;-73
2022/02/18 08:40:05;;;;;;;;;;;;;;;9.16;100.00;95759.84;5072703;28;20384;-73
2022/02/18 08:42:32;;;;;;;;;;;;;;;9.26;100.00;95737.41;5073688;28;20388;-74
2022/02/18 08:45:00;;;;;;;;;;;;;;;9.07;100.00;95739.78;5072277;28;20382;-73
2022/02/18 08:47:28;;;;;;;;;;;;;;;8.98;100.00;95735.13;5073356;28;19932;-82
2022/02/18 08:49:56;;;;;;;;;;;;;;;8.98;100.00;95728.84;5073619;28;19925;-74
2022/02/18 08:52:23;;;;;;;;;;;;;;;8.86;100.00;95719.59;5073197;28;20018;-75
2022/02/18 08:54:51;;;;;;;;;;;;;;;8.69;100.00;95701.97;5073351;28;19932;-74
2022/02/18 08:57:18;;;;;;;;;;;;;;;8.66;100.00;95691.06;5073248;28;20386;-75
2022/02/18 08:59:46;;;;;;;;;;;;;;;8.55;100.00;95691.72;5073723;28;19928;-75
2022/02/18 09:02:13;;;;;;;;;;;;;;;8.44;100.00;95683.25;5071949;28;19982;-75
2022/02/18 09:04:40;;;;;;;;;;;;;;;8.59;100.00;95681.13;5073538;28;19925;-75
2022/02/18 09:07:07;;;;;;;;;;;;;;;8.41;100.00;95681.44;5073711;28;20016;-75
2022/02/18 09:09:34;;;;;;;;;;;;;;;8.44;100.00;95674.91;5072208;28;19925;-75
2022/02/18 09:12:04;;;;;;;;;;;;;;;8.38;100.00;95660.19;5072576;28;20707;-75
2022/02/18 09:14:32;;;;;;;;;;;;;;;8.24;100.00;95661.03;5072502;28;20545;-74
2022/02/18 09:17:17;;;;;;;;;;;;;;;8.39;100.00;95645.00;5073450;28;19924;-74
2022/02/18 09:19:45;;;;;;;;;;;;;;;8.21;100.00;95642.53;5073620;28;20368;-74
2022/02/18 09:22:12;;;;;;;;;;;;;;;8.05;100.00;95632.00;5073589;28;19924;-72
2022/02/18 09:24:39;;;;;;;;;;;;;;;8.09;100.00;95629.75;5058920;28;19924;-75
2022/02/18 09:27:07;;;;;;;;;;;;;;;8.12;100.00;95614.13;5073263;28;20384;-74
2022/02/18 09:29:34;;;;;;;;;;;;;;;7.72;100.00;95603.81;5076221;28;19936;-75
2022/02/18 09:32:04;;;;;;;;;;;;;;;7.72;100.00;95586.38;5093535;28;19924;-75
2022/02/18 09:34:31;;;;;;;;;;;;;;;7.64;100.00;95586.03;5087925;28;19947;-75
2022/02/18 09:36:58;;;;;;;;;;;;;;;7.84;100.00;95549.88;5072093;28;19932;-75
2022/02/18 09:39:26;;;;;;;;;;;;;;;7.57;100.00;95517.03;5077548;28;20062;-75
2022/02/18 09:41:54;;;;;;;;;;;;;;;7.57;100.00;95463.47;5076633;28;19971;-75
2022/02/18 09:44:25;;;;;;;;;;;;;;;7.82;100.00;95469.03;5074571;28;19931;-75
2022/02/18 09:46:52;;;;;;;;;;;;;;;7.46;100.00;95507.78;5083305;28;19924;-72
2022/02/18 09:49:19;;;;;;;;;;;;;;;7.29;100.00;95530.56;5059881;28;19924;-75
2022/02/18 09:51:46;;;;;;;;;;;;;;;7.43;100.00;95512.31;5072036;28;19924;-76
2022/02/18 09:54:14;;;;;;;;;;;;;;;7.60;100.00;95502.16;5084561;28;19929;-76
2022/02/18 09:56:44;;;;;;;;;;;;;;;7.68;100.00;95483.78;5071642;28;20265;-77
2022/02/18 09:59:13;;;;;;;;;;;;;;;7.96;100.00;95468.16;5070759;28;19929;-76
2022/02/18 10:01:40;;;;;;;;;;;;;;;7.83;100.00;95439.22;5068760;28;20066;-77
2022/02/18 10:04:09;;;;;;;;;;;;;;;7.75;100.00;95461.13;5067084;28;20619;-74
2022/02/18 10:06:38;;;;;;;;;;;;;;;7.62;100.00;95446.09;5069700;28;19932;-73
2022/02/18 10:09:05;;;;;;;;;;;;;;;7.75;100.00;95441.69;5068940;28;19940;-72
2022/02/18 10:11:52;;;;;;;;;;;;;;;7.91;100.00;95449.41;5069862;28;20394;-73
2022/02/18 10:14:20;;;;;;;;;;;;;;;8.18;100.00;95437.75;5071471;28;19938;-72
2022/02/18 10:16:48;;;;;;;;;;;;;;;8.17;100.00;95416.00;5072858;28;19940;-72
2022/02/18 10:19:15;;;;;;;;;;;;;;;7.44;100.00;95383.28;5106014;28;20426;-72
2022/02/18 10:21:45;;;;;;;;;;;;;;;7.80;100.00;95404.84;5072421;28;19928;-72
2022/02/18 10:24:13;;;;;;;;;;;;;;;8.16;100.00;95370.78;5070741;28;19924;-75
2022/02/18 10:26:50;;;;;;;;;;;;;;;8.75;100.00;95352.13;5072438;28;19925;-73
2022/02/18 10:29:25;;;;;;;;;;;;;;;8.97;100.00;95335.53;5054723;28;19924;-73
2022/02/18 10:32:12;;;;;;;;;;;;;;;8.33;100.00;95318.06;5072901;28;19931;-78
2022/02/18 10:34:53;;;;;;;;;;;;;;;7.68;100.00;95311.53;5082742;28;19925;-78
2022/02/18 10:37:22;;;;;;;;;;;;;;;8.36;100.00;95300.38;5104573;28;19929;-77
2022/02/18 10:39:49;;;;;;;;;;;;;;;8.04;100.00;95291.31;5071053;28;20432;-77
2022/02/18 10:42:17;;;;;;;;;;;;;;;8.36;100.00;95284.44;5072352;28;19924;-74
2022/02/18 10:44:44;;;;;;;;;;;;;;;8.21;100.00;95258.81;5072311;28;19925;-72
2022/02/18 10:47:29;;;;;;;;;;;;;;;8.01;100.00;95281.19;5072875;28;19932;-70
2022/02/18 10:49:58;;;;;;;;;;;;;;;7.60;100.00;95274.38;5072597;28;19960;-73
2022/02/18 10:52:25;;;;;;;;;;;;;;;7.62;100.00;95277.41;5072380;28;19932;-75
2022/02/18 10:55:06;;;;;;;;;;;;;;;7.71;100.00;95248.69;5070730;28;19925;-76
2022/02/18 10:57:33;;;;;;;;;;;;;;;7.08;100.00;95256.28;5071066;28;19973;-75
2022/02/18 11:00:12;;;;;;;;;;;;;;;7.68;100.00;95247.66;5072295;28;19939;-78
2022/02/18 11:02:45;;;;;;;;;;;;;;;7.26;100.00;95217.81;5071178;28;19928;-77
2022/02/18 11:05:18;;;;;;;;;;;;;;;7.62;100.00;95205.19;5055386;28;20356;-77
2022/02/18 11:07:45;;;;;;;;;;;;;;;7.49;100.00;95201.31;5072795;28;19990;-76
2022/02/18 11:10:33;;;;;;;;;;;;;;;7.51;100.00;95182.16;5076717;28;20279;-79
2022/02/18 11:13:00;;;;;;;;;;;;;;;7.50;100.00;95186.94;5086644;28;19924;-75
2022/02/18 11:15:28;;;;;;;;;;;;;;;6.77;100.00;95175.81;5083440;28;20368;-76
2022/02/18 11:17:55;;;;;;;;;;;;;;;7.06;100.00;95186.63;5072187;28;20019;-75
2022/02/18 11:20:23;;;;;;;;;;;;;;;6.93;100.00;95184.25;5071892;28;20451;-75
2022/02/18 11:22:52;;;;;;;;;;;;;;;6.68;100.00;95162.09;5067121;28;19931;-76
2022/02/18 11:25:21;;;;;;;;;;;;;;;7.22;100.00;95156.19;5074744;28;20498;-76
2022/02/18 11:27:50;;;;;;;;;;;;;;;7.37;100.00;95139.41;5054222;28;19924;-76
2022/02/18 11:30:17;;;;;;;;;;;;;;;7.19;100.00;95128.69;5079005;28;20275;-75
2022/02/18 11:33:03;;;;;;;;;;;;;;;7.27;100.00;95147.16;5091930;28;20019;-75
2022/02/18 11:35:40;;;;;;;;;;;;;;;7.56;100.00;95157.16;5091508;28;19924;-76
2022/02/18 11:38:20;;;;;;;;;;;;;;;6.77;100.00;95142.50;5091443;28;19928;-76
2022/02/18 11:40:59;;;;;;;;;;;;;;;7.40;100.00;95143.97;5082027;28;19924;-77
2022/02/18 11:43:30;;;;;;;;;;;;;;;7.84;100.00;95137.88;5068169;28;19928;-77
2022/02/18 11:46:02;;;;;;;;;;;;;;;7.50;100.00;95111.94;5070960;28;19935;-75
2022/02/18 11:48:37;;;;;;;;;;;;;;;7.83;100.00;95128.75;5075982;28;19924;-77
2022/02/18 11:51:08;;;;;;;;;;;;;;;7.50;100.00;95125.09;5090064;28;19924;-76
2022/02/18 11:53:39;;;;;;;;;;;;;;;7.79;100.00;95114.34;5091685;28;20018;-79
2022/02/18 11:56:07;;;;;;;;;;;;;;;7.85;100.00;95112.34;5091557;28;20977;-78
2022/02/18 11:58:50;;;;;;;;;;;;;;;7.75;100.00;95108.28;5090890;28;19924;-79
2022/02/18 12:01:18;;;;;;;;;;;;;;;8.11;100.00;95123.31;5091039;28;19959;-78
2022/02/18 12:04:04;;;;;;;;;;;;;;;8.11;100.00;95135.19;5091168;28;20473;-79
2022/02/18 12:06:31;;;;;;;;;;;;;;;7.51;100.00;95135.69;5091258;28;20485;-80
2022/02/18 12:09:00;;;;;;;;;;;;;;;7.51;100.00;95080.16;5092567;28;19963;-80
2022/02/18 12:11:40;;;;;;;;;;;;;;;7.50;100.00;95117.50;5091561;28;19928;-79
2022/02/18 12:14:11;;;;;;;;;;;;;;;7.44;100.00;95141.72;5070599;28;20557;-79
2022/02/18 12:16:39;;;;;;;;;;;;;;;7.71;100.00;95140.34;5070684;28;20010;-78
2022/02/18 12:19:10;;;;;;;;;;;;;;;7.49;100.00;95152.09;5070783;28;19925;-78
2022/02/18 12:21:55;;;;;;;;;;;;;;;7.50;100.00;95170.25;5069990;28;19925;-78
2022/02/18 12:24:39;;;;;;;;;;;;;;;7.23;100.00;95173.63;5069904;28;19925;-78
2022/02/18 12:27:24;;;;;;;;;;;;;;;7.00;100.00;95210.78;5070385;28;19924;-78
2022/02/18 12:29:54;;;;;;;;;;;;;;;6.47;100.00;95207.75;5070605;28;19962;-79
2022/02/18 12:32:22;;;;;;;;;;;;;;;6.17;100.00;95211.97;5071099;28;19931;-80
2022/02/18 12:35:00;;;;;;;;;;;;;;;6.07;100.00;95230.00;5070995;28;19925;-74
2022/02/18 12:37:27;;;;;;;;;;;;;;;5.65;100.00;95229.66;5070528;28;20082;-79
2022/02/18 12:39:56;;;;;;;;;;;;;;;5.41;100.00;95263.81;5069191;28;20488;-80
2022/02/18 12:42:27;;;;;;;;;;;;;;;5.30;100.00;95302.38;5068963;28;20392;-77
2022/02/18 12:45:00;;;;;;;;;;;;;;;5.36;100.00;95330.91;5068306;28;19925;-78
2022/02/18 12:47:32;;;;;;;;;;;;;;;5.02;100.00;95337.13;5070595;28;20276;-78
2022/02/18 12:50:01;;;;;;;;;;;;;;;5.18;100.00;95374.63;5072593;28;19928;-80
2022/02/18 12:52:30;;;;;;;;;;;;;;;5.42;100.00;95398.19;5076133;28;19928;-81
2022/02/18 12:55:00;;;;;;;;;;;;;;;5.20;100.00;95402.56;5072954;28;19999;-79
2022/02/18 12:57:32;;;;;;;;;;;;;;;5.20;100.00;95414.41;5068979;28;19947;-80
2022/02/18 13:00:00;;;;;;;;;;;;;;;5.01;100.00;95413.03;5075135;28;19928;-79